createdAt,value
2018-02-27T00:01:51.000Z,26.6
2018-02-27T00:03:51.000Z,26.6
2018-02-27T00:05:51.000Z,26.5
2018-02-27T00:07:51.000Z,26.4
2018-02-27T00:08:51.000Z,26.4
2018-02-27T00:09:51.000Z,26.4
2018-02-27T00:11:51.000Z,26.4
2018-02-27T00:12:51.000Z,26.4
2018-02-27T00:14:51.000Z,26.4
2018-02-27T00:16:51.000Z,26.3
2018-02-27T00:17:51.000Z,26.3
2018-02-27T00:18:51.000Z,26.3
2018-02-27T00:19:51.000Z,26.4
2018-02-27T00:21:51.000Z,26.4
2018-02-27T00:22:51.000Z,26.4
2018-02-27T00:24:51.000Z,26.4
2018-02-27T00:26:51.000Z,26.4
2018-02-27T00:27:51.000Z,26.4
2018-02-27T00:29:51.000Z,26.4
2018-02-27T00:30:51.000Z,26.4
2018-02-27T00:32:51.000Z,26.4
2018-02-27T00:33:51.000Z,26.5
2018-02-27T00:34:51.000Z,26.5
2018-02-27T00:36:51.000Z,26.5
2018-02-27T00:38:51.000Z,26.5
2018-02-27T00:39:51.000Z,26.5
2018-02-27T00:40:51.000Z,26.5
2018-02-27T00:42:36.000Z,26.5
2018-02-27T00:43:51.000Z,26.5
2018-02-27T00:44:51.000Z,26.4
2018-02-27T00:46:51.000Z,26.4
2018-02-27T00:47:51.000Z,26.4
2018-02-27T00:49:51.000Z,26.4
2018-02-27T00:51:51.000Z,26.3
2018-02-27T00:52:51.000Z,26.3
2018-02-27T00:54:51.000Z,26.2
2018-02-27T00:56:51.000Z,26.2
2018-02-27T00:58:51.000Z,26.2
2018-02-27T00:59:51.000Z,26.2
2018-02-27T01:00:51.000Z,26.3
2018-02-27T01:01:51.000Z,26.3
2018-02-27T01:03:51.000Z,26.3
2018-02-27T01:04:51.000Z,26.3
2018-02-27T01:05:51.000Z,26.4
2018-02-27T01:07:51.000Z,26.4
2018-02-27T01:09:51.000Z,26.3
2018-02-27T01:10:51.000Z,26.3
2018-02-27T01:12:51.000Z,26.3
2018-02-27T01:14:51.000Z,26.2
2018-02-27T01:15:51.000Z,26.2
2018-02-27T01:17:51.000Z,26.2
2018-02-27T01:19:51.000Z,26.2
2018-02-27T01:21:51.000Z,26.2
2018-02-27T01:22:51.000Z,26.2
2018-02-27T01:23:51.000Z,26.2
2018-02-27T01:25:51.000Z,26.2
2018-02-27T01:27:51.000Z,26.2
2018-02-27T01:29:51.000Z,26.2
2018-02-27T01:30:51.000Z,26.2
2018-02-27T01:31:51.000Z,26.2
2018-02-27T01:32:51.000Z,26.3
2018-02-27T01:34:51.000Z,26.3
2018-02-27T01:36:35.000Z,26.3
2018-02-27T01:37:51.000Z,26.2
2018-02-27T01:38:51.000Z,26.2
2018-02-27T01:40:51.000Z,26.2
2018-02-27T01:41:51.000Z,26.2
2018-02-27T01:43:51.000Z,26.2
2018-02-27T01:45:51.000Z,26.2
2018-02-27T01:47:51.000Z,26.1
2018-02-27T01:48:51.000Z,26.1
2018-02-27T01:49:51.000Z,26.2
2018-02-27T01:50:51.000Z,26.2
2018-02-27T01:52:35.000Z,26.3
2018-02-27T01:53:51.000Z,26.3
2018-02-27T01:55:51.000Z,26.2
2018-02-27T01:57:51.000Z,26.1
2018-02-27T01:59:51.000Z,26.1
2018-02-27T02:01:51.000Z,26.1
2018-02-27T02:02:51.000Z,26.1
2018-02-27T02:03:51.000Z,26.1
2018-02-27T02:04:51.000Z,26.2
2018-02-27T02:06:51.000Z,26.2
2018-02-27T02:07:51.000Z,26.2
2018-02-27T02:08:51.000Z,26.3
2018-02-27T02:10:51.000Z,26.3
2018-02-27T02:12:51.000Z,26.2
2018-02-27T02:14:51.000Z,26.1
2018-02-27T02:15:51.000Z,26.1
2018-02-27T02:16:51.000Z,26.1
2018-02-27T02:18:51.000Z,26.1
2018-02-27T02:20:51.000Z,26.1
2018-02-27T02:21:51.000Z,26.1
2018-02-27T02:22:51.000Z,26.2
2018-02-27T02:23:51.000Z,26.2
2018-02-27T02:25:51.000Z,26.2
2018-02-27T02:27:51.000Z,26.2
2018-02-27T02:28:51.000Z,26.2
2018-02-27T02:30:51.000Z,26.1
2018-02-27T02:32:51.000Z,26.1
2018-02-27T02:33:51.000Z,26.1
2018-02-27T02:34:51.000Z,26.1
2018-02-27T02:36:51.000Z,26.1
2018-02-27T02:38:51.000Z,26.1
2018-02-27T02:40:51.000Z,26
2018-02-27T02:42:51.000Z,26
2018-02-27T02:43:51.000Z,26
2018-02-27T02:45:51.000Z,26
2018-02-27T02:47:51.000Z,26
2018-02-27T02:49:51.000Z,25.9
2018-02-27T02:50:51.000Z,25.9
2018-02-27T02:51:51.000Z,25.9
2018-02-27T02:53:51.000Z,26
2018-02-27T02:55:51.000Z,26
2018-02-27T02:56:51.000Z,26
2018-02-27T02:58:51.000Z,26.1
2018-02-27T03:00:51.000Z,26
2018-02-27T03:01:51.000Z,26
2018-02-27T03:03:51.000Z,26
2018-02-27T03:04:51.000Z,26
2018-02-27T03:06:51.000Z,26
2018-02-27T03:07:51.000Z,26
2018-02-27T03:09:51.000Z,26
2018-02-27T03:10:51.000Z,26
2018-02-27T03:11:51.000Z,26
2018-02-27T03:13:51.000Z,26
2018-02-27T03:15:51.000Z,25.9
2018-02-27T03:17:51.000Z,25.9
2018-02-27T03:19:36.000Z,25.9
2018-02-27T03:20:51.000Z,25.9
2018-02-27T03:22:51.000Z,25.9
2018-02-27T03:23:51.000Z,25.9
2018-02-27T03:25:51.000Z,26
2018-02-27T03:27:51.000Z,26
2018-02-27T03:28:51.000Z,26
2018-02-27T03:29:51.000Z,26
2018-02-27T03:30:51.000Z,26
2018-02-27T03:32:51.000Z,26.1
2018-02-27T03:34:51.000Z,26.1
2018-02-27T03:36:51.000Z,26
2018-02-27T03:38:51.000Z,26
2018-02-27T03:39:51.000Z,26
2018-02-27T03:40:51.000Z,26
2018-02-27T03:42:51.000Z,26
2018-02-27T03:44:51.000Z,25.9
2018-02-27T03:45:51.000Z,25.9
2018-02-27T03:47:51.000Z,25.9
2018-02-27T03:48:51.000Z,25.9
2018-02-27T03:50:36.000Z,26
2018-02-27T03:51:51.000Z,26
2018-02-27T03:53:51.000Z,26
2018-02-27T03:54:51.000Z,26
2018-02-27T03:55:51.000Z,26
2018-02-27T03:56:51.000Z,26
2018-02-27T03:57:51.000Z,26.1
2018-02-27T03:58:51.000Z,26.1
2018-02-27T03:59:51.000Z,26.1
2018-02-27T04:01:51.000Z,26.2
2018-02-27T04:02:51.000Z,26.2
2018-02-27T04:04:51.000Z,26.1
2018-02-27T04:05:51.000Z,26.1
2018-02-27T04:06:51.000Z,26.1
2018-02-27T04:08:51.000Z,26
2018-02-27T04:10:51.000Z,26
2018-02-27T04:11:51.000Z,26
2018-02-27T04:13:51.000Z,26
2018-02-27T04:15:51.000Z,26
2018-02-27T04:16:51.000Z,26
2018-02-27T04:18:51.000Z,26
2018-02-27T04:20:51.000Z,26
2018-02-27T04:21:51.000Z,26
2018-02-27T04:23:51.000Z,26
2018-02-27T04:25:51.000Z,26
2018-02-27T04:26:51.000Z,26
2018-02-27T04:28:36.000Z,26
2018-02-27T04:29:51.000Z,26
2018-02-27T04:30:51.000Z,26
2018-02-27T04:32:51.000Z,26
2018-02-27T04:34:51.000Z,26
2018-02-27T04:35:51.000Z,26
2018-02-27T04:36:51.000Z,26
2018-02-27T04:37:51.000Z,26
2018-02-27T04:39:51.000Z,26
2018-02-27T04:40:51.000Z,26.1
2018-02-27T04:42:51.000Z,26
2018-02-27T04:43:51.000Z,26
2018-02-27T04:45:51.000Z,26
2018-02-27T04:47:36.000Z,25.9
2018-02-27T04:48:51.000Z,25.9
2018-02-27T04:50:36.000Z,25.9
2018-02-27T04:51:51.000Z,25.9
2018-02-27T04:53:51.000Z,25.9
2018-02-27T04:55:51.000Z,25.9
2018-02-27T04:57:51.000Z,25.8
2018-02-27T04:58:51.000Z,25.8
2018-02-27T05:00:51.000Z,25.8
2018-02-27T05:01:51.000Z,25.8
2018-02-27T05:03:51.000Z,25.9
2018-02-27T05:05:51.000Z,25.9
2018-02-27T05:06:51.000Z,25.9
2018-02-27T05:08:51.000Z,25.9
2018-02-27T05:09:51.000Z,26
2018-02-27T05:11:51.000Z,26
2018-02-27T05:12:51.000Z,26
2018-02-27T05:14:51.000Z,26
2018-02-27T05:16:51.000Z,26
2018-02-27T05:18:51.000Z,25.9
2018-02-27T05:19:51.000Z,25.9
2018-02-27T05:21:51.000Z,25.9
2018-02-27T05:23:36.000Z,25.8
2018-02-27T05:24:51.000Z,25.8
2018-02-27T05:26:35.000Z,25.8
2018-02-27T05:27:50.000Z,25.7
2018-02-27T05:28:50.000Z,25.7
2018-02-27T05:30:50.000Z,25.7
2018-02-27T05:31:50.000Z,25.7
2018-02-27T05:32:50.000Z,25.8
2018-02-27T05:33:50.000Z,25.8
2018-02-27T05:34:50.000Z,25.8
2018-02-27T05:36:50.000Z,25.8
2018-02-27T05:37:50.000Z,25.8
2018-02-27T05:39:50.000Z,25.8
2018-02-27T05:41:50.000Z,25.7
2018-02-27T05:43:50.000Z,25.7
2018-02-27T05:44:50.000Z,25.7
2018-02-27T05:45:50.000Z,25.8
2018-02-27T05:46:50.000Z,25.9
2018-02-27T05:48:50.000Z,26
2018-02-27T05:49:50.000Z,26
2018-02-27T05:50:50.000Z,26
2018-02-27T05:52:50.000Z,26
2018-02-27T05:54:35.000Z,26
2018-02-27T05:55:50.000Z,26
2018-02-27T05:56:50.000Z,26
2018-02-27T05:57:50.000Z,26
2018-02-27T05:59:50.000Z,26.1
2018-02-27T06:01:50.000Z,26.1
2018-02-27T06:03:50.000Z,26
2018-02-27T06:05:50.000Z,26
2018-02-27T06:06:50.000Z,26
2018-02-27T06:08:50.000Z,26
2018-02-27T06:09:50.000Z,26.1
2018-02-27T06:10:50.000Z,26.1
2018-02-27T06:12:50.000Z,26.1
2018-02-27T06:14:50.000Z,26.1
2018-02-27T06:15:50.000Z,26.2
2018-02-27T06:17:50.000Z,26.2
2018-02-27T06:19:50.000Z,26.2
2018-02-27T06:20:50.000Z,26.2
2018-02-27T06:22:50.000Z,26.3
2018-02-27T06:24:50.000Z,26.2
2018-02-27T06:25:50.000Z,26.2
2018-02-27T06:27:50.000Z,26.3
2018-02-27T06:28:50.000Z,26.3
2018-02-27T06:30:50.000Z,26.3
2018-02-27T06:32:50.000Z,26.4
2018-02-27T06:34:50.000Z,26.4
2018-02-27T06:36:50.000Z,26.4
2018-02-27T06:38:50.000Z,26.5
2018-02-27T06:39:50.000Z,26.5
2018-02-27T06:40:50.000Z,26.6
2018-02-27T06:42:50.000Z,26.7
2018-02-27T06:44:50.000Z,26.6
2018-02-27T06:46:50.000Z,26.7
2018-02-27T06:48:50.000Z,26.7
2018-02-27T06:49:50.000Z,26.7
2018-02-27T06:51:50.000Z,26.9
2018-02-27T06:53:50.000Z,27
2018-02-27T06:54:50.000Z,27
2018-02-27T06:55:50.000Z,27.1
2018-02-27T06:56:50.000Z,27.2
2018-02-27T06:57:50.000Z,27.3
2018-02-27T06:59:50.000Z,27.4
2018-02-27T07:01:50.000Z,27.3
2018-02-27T07:02:50.000Z,27.4
2018-02-27T07:03:50.000Z,27.4
2018-02-27T07:05:50.000Z,27.5
2018-02-27T07:06:50.000Z,27.6
2018-02-27T07:08:50.000Z,27.6
2018-02-27T07:09:50.000Z,27.7
2018-02-27T07:11:50.000Z,27.7
2018-02-27T07:12:50.000Z,27.8
2018-02-27T07:13:50.000Z,27.8
2018-02-27T07:14:50.000Z,27.9
2018-02-27T07:15:50.000Z,28
2018-02-27T07:17:50.000Z,28.1
2018-02-27T07:19:35.000Z,28.1
2018-02-27T07:20:50.000Z,28
2018-02-27T07:21:50.000Z,28.1
2018-02-27T07:23:50.000Z,28.1
2018-02-27T07:25:50.000Z,28.1
2018-02-27T07:26:50.000Z,28.2
2018-02-27T07:28:35.000Z,28.3
2018-02-27T07:29:50.000Z,28.3
2018-02-27T07:31:50.000Z,28.4
2018-02-27T07:33:50.000Z,28.5
2018-02-27T07:34:50.000Z,28.6
2018-02-27T07:36:50.000Z,28.7
2018-02-27T07:38:50.000Z,28.8
2018-02-27T07:40:50.000Z,28.8
2018-02-27T07:42:50.000Z,28.9
2018-02-27T07:44:50.000Z,29
2018-02-27T07:46:35.000Z,29
2018-02-27T07:47:50.000Z,29
2018-02-27T07:48:50.000Z,29.1
2018-02-27T07:50:50.000Z,29.2
2018-02-27T07:51:50.000Z,29.3
2018-02-27T07:52:50.000Z,29.4
2018-02-27T07:54:50.000Z,29.4
2018-02-27T07:55:50.000Z,29.5
2018-02-27T07:57:50.000Z,29.6
2018-02-27T07:59:50.000Z,29.4
2018-02-27T08:00:50.000Z,28.9
2018-02-27T08:02:50.000Z,28.7
2018-02-27T08:03:50.000Z,28.8
2018-02-27T08:04:50.000Z,29
2018-02-27T08:05:50.000Z,29.2
2018-02-27T08:07:50.000Z,29.5
2018-02-27T08:09:50.000Z,29.6
2018-02-27T08:11:50.000Z,29.7
2018-02-27T08:13:50.000Z,29.9
2018-02-27T08:14:50.000Z,30
2018-02-27T08:15:50.000Z,30.1
2018-02-27T08:16:50.000Z,30.3
2018-02-27T08:17:50.000Z,30.4
2018-02-27T08:19:50.000Z,30.6
2018-02-27T08:21:50.000Z,30.7
2018-02-27T08:23:50.000Z,30.8
2018-02-27T08:25:50.000Z,30.9
2018-02-27T08:27:35.000Z,31
2018-02-27T08:28:50.000Z,31.1
2018-02-27T08:30:50.000Z,31.2
2018-02-27T08:31:50.000Z,31.4
2018-02-27T08:35:50.000Z,31.6
2018-02-27T08:37:37.000Z,31.8
2018-02-27T08:38:37.000Z,31.6
2018-02-27T08:40:37.000Z,31.1
2018-02-27T08:41:37.000Z,31
2018-02-27T08:43:37.000Z,30.7
2018-02-27T08:45:37.000Z,30.4
2018-02-27T08:46:37.000Z,30.3
2018-02-27T08:48:37.000Z,30.1
2018-02-27T08:49:37.000Z,30
2018-02-27T08:51:21.000Z,30
2018-02-27T08:52:37.000Z,29.9
2018-02-27T08:53:37.000Z,29.8
2018-02-27T08:55:21.000Z,29.8
2018-02-27T08:56:37.000Z,29.8
2018-02-27T08:57:37.000Z,29.7
2018-02-27T08:58:37.000Z,29.8
2018-02-27T08:59:37.000Z,29.8
2018-02-27T09:01:37.000Z,29.7
2018-02-27T09:03:37.000Z,29.5
2018-02-27T09:05:37.000Z,29.4
2018-02-27T09:06:37.000Z,29.4
2018-02-27T09:08:37.000Z,29.4
2018-02-27T09:10:37.000Z,29.3
2018-02-27T09:12:37.000Z,29.2
2018-02-27T09:14:37.000Z,29.1
2018-02-27T09:16:37.000Z,29.1
2018-02-27T09:18:37.000Z,29.1
2018-02-27T09:20:37.000Z,29.1
2018-02-27T09:22:37.000Z,29.1
2018-02-27T09:24:37.000Z,29.1
2018-02-27T09:25:37.000Z,29.1
2018-02-27T09:27:37.000Z,29.1
2018-02-27T09:29:37.000Z,29.1
2018-02-27T09:31:37.000Z,29
2018-02-27T09:32:37.000Z,29
2018-02-27T09:34:37.000Z,29.1
2018-02-27T09:36:37.000Z,29.1
2018-02-27T09:37:37.000Z,29.1
2018-02-27T09:39:37.000Z,29.1
2018-02-27T09:41:37.000Z,29.2
2018-02-27T09:42:37.000Z,29.2
2018-02-27T09:43:37.000Z,29.2
2018-02-27T09:45:37.000Z,29.3
2018-02-27T09:47:37.000Z,29.2
2018-02-27T09:49:21.000Z,29.1
2018-02-27T09:50:37.000Z,29.1
2018-02-27T09:52:37.000Z,29
2018-02-27T09:54:37.000Z,29
2018-02-27T09:55:37.000Z,29
2018-02-27T09:56:37.000Z,29
2018-02-27T09:58:37.000Z,29.1
2018-02-27T10:00:37.000Z,29.1
2018-02-27T10:02:21.000Z,29.1
2018-02-27T10:03:37.000Z,29
2018-02-27T10:05:37.000Z,29
2018-02-27T10:07:37.000Z,28.9
2018-02-27T10:09:37.000Z,28.8
2018-02-27T10:11:37.000Z,28.8
2018-02-27T10:12:37.000Z,28.8
2018-02-27T10:14:37.000Z,28.8
2018-02-27T10:16:37.000Z,28.8
2018-02-27T10:17:37.000Z,28.8
2018-02-27T10:19:37.000Z,28.9
2018-02-27T10:21:37.000Z,29
2018-02-27T10:23:37.000Z,28.9
2018-02-27T10:25:37.000Z,28.9
2018-02-27T10:27:37.000Z,28.9
2018-02-27T10:28:37.000Z,28.9
2018-02-27T10:29:37.000Z,29
2018-02-27T10:31:37.000Z,29.1
2018-02-27T10:32:37.000Z,29.1
2018-02-27T10:33:37.000Z,29.2
2018-02-27T10:35:37.000Z,29.2
2018-02-27T10:36:37.000Z,29.2
2018-02-27T10:37:37.000Z,29.3
2018-02-27T10:39:21.000Z,29.3
2018-02-27T10:40:37.000Z,29.2
2018-02-27T10:42:37.000Z,29.2
2018-02-27T10:44:37.000Z,29.2
2018-02-27T10:46:37.000Z,29.1
2018-02-27T10:47:37.000Z,29.1
2018-02-27T10:49:37.000Z,29.1
2018-02-27T10:50:37.000Z,29.2
2018-02-27T10:52:37.000Z,29.2
2018-02-27T10:54:37.000Z,29.2
2018-02-27T10:55:37.000Z,29.2
2018-02-27T10:57:37.000Z,29.3
2018-02-27T10:58:37.000Z,29.3
2018-02-27T11:00:37.000Z,29.3
2018-02-27T11:02:37.000Z,29.3
2018-02-27T11:04:21.000Z,29.3
2018-02-27T11:05:37.000Z,29.3
2018-02-27T11:07:37.000Z,29.3
2018-02-27T11:08:37.000Z,29.3
2018-02-27T11:10:37.000Z,29.3
2018-02-27T11:12:37.000Z,29.3
2018-02-27T11:13:37.000Z,29.3
2018-02-27T11:15:21.000Z,29.4
2018-02-27T11:16:37.000Z,29.4
2018-02-27T11:18:37.000Z,29.4
2018-02-27T11:20:22.000Z,28.8
2018-02-27T11:21:37.000Z,29.3
2018-02-27T11:22:37.000Z,29.3
2018-02-27T11:24:37.000Z,29.3
2018-02-27T11:25:37.000Z,29.3
2018-02-27T11:26:37.000Z,29.3
2018-02-27T11:28:37.000Z,29.4
2018-02-27T11:30:37.000Z,29.4
2018-02-27T11:32:37.000Z,29.4
2018-02-27T11:34:36.000Z,29.3
2018-02-27T11:35:36.000Z,29.3
2018-02-27T11:37:22.000Z,29
2018-02-27T11:38:37.000Z,29.2
2018-02-27T11:40:37.000Z,29.2
2018-02-27T11:41:37.000Z,29.2
2018-02-27T11:43:37.000Z,29.3
2018-02-27T11:45:37.000Z,29.2
2018-02-27T11:47:37.000Z,29.1
2018-02-27T11:48:37.000Z,29.1
2018-02-27T11:49:37.000Z,29.1
2018-02-27T11:50:37.000Z,29.2
2018-02-27T11:52:37.000Z,29.2
2018-02-27T11:54:37.000Z,29.1
2018-02-27T11:56:37.000Z,29
2018-02-27T11:57:37.000Z,29
2018-02-27T11:59:37.000Z,29
2018-02-27T12:00:37.000Z,28.9
2018-02-27T12:01:37.000Z,28.9
2018-02-27T12:03:37.000Z,28.8
2018-02-27T12:05:37.000Z,28.7
2018-02-27T12:07:37.000Z,28.6
2018-02-27T12:09:37.000Z,28.5
2018-02-27T12:10:37.000Z,28.5
2018-02-27T12:11:37.000Z,28.6
2018-02-27T12:13:37.000Z,28.5
2018-02-27T12:15:37.000Z,28.5
2018-02-27T12:16:37.000Z,28.4
2018-02-27T12:18:37.000Z,28.4
2018-02-27T12:19:37.000Z,28.4
2018-02-27T12:20:37.000Z,28.4
2018-02-27T12:21:37.000Z,28.5
2018-02-27T12:23:37.000Z,28.5
2018-02-27T12:24:37.000Z,28.5
2018-02-27T12:26:37.000Z,28.5
2018-02-27T12:28:37.000Z,28.4
2018-02-27T12:30:37.000Z,28.3
2018-02-27T12:31:37.000Z,28.3
2018-02-27T12:33:37.000Z,28.3
2018-02-27T12:34:37.000Z,28.3
2018-02-27T12:35:37.000Z,28.4
2018-02-27T12:37:37.000Z,28.4
2018-02-27T12:39:37.000Z,28.4
2018-02-27T12:41:37.000Z,28.4
2018-02-27T12:42:37.000Z,28.4
2018-02-27T12:44:37.000Z,28.3
2018-02-27T12:46:37.000Z,28.2
2018-02-27T12:48:22.000Z,28.1
2018-02-27T12:49:37.000Z,28.1
2018-02-27T12:50:37.000Z,28.1
2018-02-27T12:52:36.000Z,28.3
2018-02-27T12:54:36.000Z,28.3
2018-02-27T12:55:36.000Z,28.3
2018-02-27T12:56:36.000Z,28.3
2018-02-27T12:58:36.000Z,28.3
2018-02-27T13:00:36.000Z,28.3
2018-02-27T13:01:36.000Z,28.3
2018-02-27T13:02:36.000Z,28.4
2018-02-27T13:04:36.000Z,28.5
2018-02-27T13:05:36.000Z,28.6
2018-02-27T13:07:36.000Z,28.6
2018-02-27T13:09:36.000Z,28.6
2018-02-27T13:11:36.000Z,28.6
2018-02-27T13:13:36.000Z,28.6
2018-02-27T13:14:36.000Z,28.6
2018-02-27T13:15:36.000Z,28.6
2018-02-27T13:16:36.000Z,28.7
2018-02-27T13:18:36.000Z,28.8
2018-02-27T13:19:36.000Z,28.8
2018-02-27T13:21:36.000Z,28.8
2018-02-27T13:22:36.000Z,28.8
2018-02-27T13:23:36.000Z,28.8
2018-02-27T13:24:36.000Z,28.9
2018-02-27T13:26:36.000Z,28.9
2018-02-27T13:27:36.000Z,28.9
2018-02-27T13:29:36.000Z,28.9
2018-02-27T13:30:36.000Z,29
2018-02-27T13:32:36.000Z,29
2018-02-27T13:33:36.000Z,29
2018-02-27T13:35:36.000Z,29
2018-02-27T13:36:36.000Z,28.9
2018-02-27T13:38:36.000Z,29
2018-02-27T13:40:36.000Z,28.9
2018-02-27T13:42:36.000Z,28.8
2018-02-27T13:43:36.000Z,28.8
2018-02-27T13:45:36.000Z,28.9
2018-02-27T13:46:36.000Z,28.9
2018-02-27T13:48:36.000Z,28.9
2018-02-27T13:49:36.000Z,28.9
2018-02-27T13:50:36.000Z,29
2018-02-27T13:52:36.000Z,29.1
2018-02-27T13:54:36.000Z,29.1
2018-02-27T13:56:37.000Z,29.1
2018-02-27T13:58:37.000Z,29.1
2018-02-27T14:00:37.000Z,29.1
2018-02-27T14:01:37.000Z,29.1
2018-02-27T14:03:37.000Z,29.1
2018-02-27T14:05:37.000Z,29.2
2018-02-27T14:06:37.000Z,29.2
2018-02-27T14:07:37.000Z,29.3
2018-02-27T14:09:37.000Z,29.4
2018-02-27T14:11:37.000Z,29.5
2018-02-27T14:13:22.000Z,29.5
2018-02-27T14:14:37.000Z,29.5
2018-02-27T14:16:37.000Z,29.6
2018-02-27T14:18:37.000Z,29.8
2018-02-27T14:20:37.000Z,30.1
2018-02-27T14:21:37.000Z,30.5
2018-02-27T14:22:37.000Z,30.7
2018-02-27T14:24:37.000Z,31.3
2018-02-27T14:26:22.000Z,31.6
2018-02-27T14:28:37.000Z,32.1
2018-02-27T14:30:37.000Z,31.6
2018-02-27T14:32:37.000Z,31
2018-02-27T14:34:37.000Z,30.4
2018-02-27T14:36:37.000Z,30.1
2018-02-27T14:38:37.000Z,29.9
2018-02-27T14:39:37.000Z,29.8
2018-02-27T14:41:22.000Z,29.8
2018-02-27T14:42:37.000Z,29.7
2018-02-27T14:44:37.000Z,29.6
2018-02-27T14:46:37.000Z,29.4
2018-02-27T14:48:22.000Z,29.3
2018-02-27T14:49:37.000Z,29.3
2018-02-27T14:51:37.000Z,29.2
2018-02-27T14:53:37.000Z,29.2
2018-02-27T14:55:37.000Z,29.1
2018-02-27T14:57:37.000Z,29.1
2018-02-27T14:58:37.000Z,29.1
2018-02-27T15:00:37.000Z,29.1
2018-02-27T15:01:37.000Z,29.1
2018-02-27T15:03:37.000Z,29.2
2018-02-27T15:04:37.000Z,29.2
2018-02-27T15:05:37.000Z,29.2
2018-02-27T15:06:37.000Z,29.3
2018-02-27T15:07:37.000Z,29.3
2018-02-27T15:09:37.000Z,29.2
2018-02-27T15:11:37.000Z,29.1
2018-02-27T15:12:37.000Z,29.1
2018-02-27T15:14:37.000Z,29.1
2018-02-27T15:15:37.000Z,29.1
2018-02-27T15:17:37.000Z,29.1
2018-02-27T15:19:37.000Z,29
2018-02-27T15:21:37.000Z,29
2018-02-27T15:22:37.000Z,28.9
2018-02-27T15:24:37.000Z,28.9
2018-02-27T15:26:37.000Z,28.8
2018-02-27T15:28:21.000Z,28.8
2018-02-27T15:29:37.000Z,28.7
2018-02-27T15:30:37.000Z,28.7
2018-02-27T15:32:37.000Z,28.7
2018-02-27T15:33:37.000Z,28.8
2018-02-27T15:35:37.000Z,28.7
2018-02-27T15:37:37.000Z,28.6
2018-02-27T15:38:37.000Z,28.6
2018-02-27T15:39:37.000Z,28.6
2018-02-27T15:41:37.000Z,28.6
2018-02-27T15:43:37.000Z,28.5
2018-02-27T15:44:37.000Z,28.5
2018-02-27T15:46:37.000Z,28.5
2018-02-27T15:48:21.000Z,28.6
2018-02-27T15:49:37.000Z,28.6
2018-02-27T15:50:37.000Z,28.6
2018-02-27T15:52:21.000Z,28.7
2018-02-27T15:53:37.000Z,28.7
2018-02-27T15:54:37.000Z,28.8
2018-02-27T15:55:37.000Z,28.8
2018-02-27T15:57:37.000Z,28.9
2018-02-27T15:59:37.000Z,28.9
2018-02-27T16:01:37.000Z,28.9
2018-02-27T16:03:37.000Z,28.8
2018-02-27T16:04:37.000Z,28.8
2018-02-27T16:06:37.000Z,28.8
2018-02-27T16:08:21.000Z,28.8
2018-02-27T16:09:37.000Z,28.8
2018-02-27T16:11:37.000Z,28.7
2018-02-27T16:12:37.000Z,28.7
2018-02-27T16:14:21.000Z,28.8
2018-02-27T16:15:37.000Z,28.7
2018-02-27T16:17:37.000Z,28.7
2018-02-27T16:18:37.000Z,28.7
2018-02-27T16:20:37.000Z,28.7
2018-02-27T16:22:37.000Z,28.7
2018-02-27T16:24:21.000Z,28.7
2018-02-27T16:25:37.000Z,28.6
2018-02-27T16:26:37.000Z,28.6
2018-02-27T16:28:37.000Z,28.6
2018-02-27T16:30:21.000Z,28.6
2018-02-27T16:31:37.000Z,28.5
2018-02-27T16:32:37.000Z,28.6
2018-02-27T16:34:37.000Z,28.6
2018-02-27T16:35:37.000Z,28.6
2018-02-27T16:36:37.000Z,28.6
2018-02-27T16:38:37.000Z,28.7
2018-02-27T16:39:37.000Z,28.7
2018-02-27T16:41:37.000Z,28.7
2018-02-27T16:43:37.000Z,28.6
2018-02-27T16:45:21.000Z,28.6
2018-02-27T16:46:37.000Z,28.5
2018-02-27T16:48:37.000Z,28.5
2018-02-27T16:49:37.000Z,28.4
2018-02-27T16:51:37.000Z,28.4
2018-02-27T16:52:37.000Z,28.4
2018-02-27T16:53:37.000Z,28.5
2018-02-27T16:55:37.000Z,28.5
2018-02-27T16:56:37.000Z,28.5
2018-02-27T16:58:37.000Z,28.5
2018-02-27T17:00:37.000Z,28.4
2018-02-27T17:02:37.000Z,28.3
2018-02-27T17:03:37.000Z,28.3
2018-02-27T17:04:37.000Z,28.4
2018-02-27T17:05:37.000Z,28.4
2018-02-27T17:06:37.000Z,28.5
2018-02-27T17:08:37.000Z,28.4
2018-02-27T17:09:37.000Z,28.4
2018-02-27T17:11:37.000Z,28.4
2018-02-27T17:13:37.000Z,28.3
2018-02-27T17:14:37.000Z,28.3
2018-02-27T17:16:37.000Z,28.2
2018-02-27T17:18:37.000Z,28.1
2018-02-27T17:20:37.000Z,28.1
2018-02-27T17:21:37.000Z,28
2018-02-27T17:23:22.000Z,28.1
2018-02-27T17:24:37.000Z,28.1
2018-02-27T17:25:37.000Z,28.1
2018-02-27T17:26:37.000Z,28.1
2018-02-27T17:27:37.000Z,28.2
2018-02-27T17:28:37.000Z,28.3
2018-02-27T17:30:37.000Z,28.3
2018-02-27T17:31:37.000Z,28.3
2018-02-27T17:32:37.000Z,28.3
2018-02-27T17:34:37.000Z,28.3
2018-02-27T17:36:37.000Z,28.1
2018-02-27T17:38:37.000Z,28
2018-02-27T17:40:37.000Z,27.9
2018-02-27T17:42:37.000Z,27.8
2018-02-27T17:43:37.000Z,27.8
2018-02-27T17:45:37.000Z,27.8
2018-02-27T17:46:37.000Z,27.8
2018-02-27T17:48:37.000Z,27.9
2018-02-27T17:49:37.000Z,27.9
2018-02-27T17:51:37.000Z,27.9
2018-02-27T17:52:37.000Z,27.9
2018-02-27T17:54:37.000Z,27.8
2018-02-27T17:55:37.000Z,27.8
2018-02-27T17:57:37.000Z,27.8
2018-02-27T17:59:37.000Z,27.8
2018-02-27T18:00:37.000Z,27.8
2018-02-27T18:02:37.000Z,27.8
2018-02-27T18:03:37.000Z,27.8
2018-02-27T18:05:37.000Z,27.8
2018-02-27T18:06:37.000Z,27.8
2018-02-27T18:08:37.000Z,27.8
2018-02-27T18:10:37.000Z,27.8
2018-02-27T18:11:37.000Z,27.8
2018-02-27T18:13:37.000Z,27.7
2018-02-27T18:14:37.000Z,27.7
2018-02-27T18:15:37.000Z,27.7
2018-02-27T18:17:37.000Z,27.7
2018-02-27T18:19:22.000Z,27.7
2018-02-27T18:20:37.000Z,27.6
2018-02-27T18:21:37.000Z,27.6
2018-02-27T18:23:37.000Z,27.6
2018-02-27T18:25:37.000Z,27.5
2018-02-27T18:26:37.000Z,27.5
2018-02-27T18:28:37.000Z,27.6
2018-02-27T18:30:37.000Z,27.6
2018-02-27T18:31:37.000Z,27.6
2018-02-27T18:33:37.000Z,27.6
2018-02-27T18:35:37.000Z,27.6
2018-02-27T18:36:37.000Z,27.6
2018-02-27T18:38:37.000Z,27.6
2018-02-27T18:40:37.000Z,27.6
2018-02-27T18:42:37.000Z,27.5
2018-02-27T18:43:37.000Z,27.5
2018-02-27T18:45:37.000Z,27.5
2018-02-27T18:47:37.000Z,27.5
2018-02-27T18:48:37.000Z,27.5
2018-02-27T18:50:37.000Z,27.6
2018-02-27T18:51:37.000Z,27.6
2018-02-27T18:52:37.000Z,27.6
2018-02-27T18:54:37.000Z,27.7
2018-02-27T18:55:37.000Z,27.7
2018-02-27T18:56:37.000Z,27.7
2018-02-27T18:57:37.000Z,27.8
2018-02-27T18:59:37.000Z,27.8
2018-02-27T19:00:37.000Z,27.7
2018-02-27T19:02:37.000Z,27.7
2018-02-27T19:04:37.000Z,27.7
2018-02-27T19:06:37.000Z,27.6
2018-02-27T19:08:37.000Z,27.6
2018-02-27T19:10:37.000Z,27.5
2018-02-27T19:11:37.000Z,27.5
2018-02-27T19:13:37.000Z,27.5
2018-02-27T19:14:36.000Z,27.5
2018-02-27T19:15:36.000Z,27.5
2018-02-27T19:17:36.000Z,27.6
2018-02-27T19:18:36.000Z,27.6
2018-02-27T19:20:36.000Z,27.6
2018-02-27T19:22:36.000Z,27.6
2018-02-27T19:24:36.000Z,27.5
2018-02-27T19:25:36.000Z,27.5
2018-02-27T19:27:36.000Z,27.5
2018-02-27T19:28:36.000Z,27.5
2018-02-27T19:30:36.000Z,27.5
2018-02-27T19:31:36.000Z,27.5
2018-02-27T19:33:36.000Z,27.5
2018-02-27T19:35:21.000Z,27.5
2018-02-27T19:36:36.000Z,27.5
2018-02-27T19:37:36.000Z,27.5
2018-02-27T19:39:36.000Z,27.5
2018-02-27T19:40:36.000Z,27.6
2018-02-27T19:41:36.000Z,27.6
2018-02-27T19:43:36.000Z,27.6
2018-02-27T19:44:36.000Z,27.6
2018-02-27T19:46:36.000Z,27.6
2018-02-27T19:47:36.000Z,27.6
2018-02-27T19:48:36.000Z,27.6
2018-02-27T19:50:36.000Z,27.5
2018-02-27T19:51:36.000Z,27.5
2018-02-27T19:53:21.000Z,27.5
2018-02-27T19:54:36.000Z,27.5
2018-02-27T19:56:36.000Z,27.4
2018-02-27T19:58:36.000Z,27.4
2018-02-27T20:00:36.000Z,27.2
2018-02-27T20:01:36.000Z,27.2
2018-02-27T20:02:36.000Z,27.3
2018-02-27T20:04:21.000Z,27.3
2018-02-27T20:05:36.000Z,27.3
2018-02-27T20:07:36.000Z,27.2
2018-02-27T20:08:36.000Z,27.2
2018-02-27T20:09:36.000Z,27.2
2018-02-27T20:10:36.000Z,27.2
2018-02-27T20:11:36.000Z,27.3
2018-02-27T20:13:21.000Z,27.4
2018-02-27T20:14:36.000Z,27.3
2018-02-27T20:15:36.000Z,27.3
2018-02-27T20:17:36.000Z,27.3
2018-02-27T20:19:36.000Z,27.3
2018-02-27T20:20:36.000Z,27.3
2018-02-27T20:22:36.000Z,27.3
2018-02-27T20:23:36.000Z,27.3
2018-02-27T20:25:36.000Z,27.3
2018-02-27T20:27:36.000Z,27.3
2018-02-27T20:29:36.000Z,27.2
2018-02-27T20:30:36.000Z,27.2
2018-02-27T20:32:36.000Z,27.2
2018-02-27T20:34:36.000Z,27.2
2018-02-27T20:35:36.000Z,27.2
2018-02-27T20:37:36.000Z,27.2
2018-02-27T20:39:36.000Z,27.1
2018-02-27T20:40:36.000Z,27.2
2018-02-27T20:41:36.000Z,27.2
2018-02-27T20:43:36.000Z,27.2
2018-02-27T20:44:36.000Z,27.2
2018-02-27T20:46:36.000Z,27.2
2018-02-27T20:47:36.000Z,27.2
2018-02-27T20:48:36.000Z,27.2
2018-02-27T20:50:36.000Z,27.1
2018-02-27T20:51:36.000Z,27.1
2018-02-27T20:53:36.000Z,27.1
2018-02-27T20:54:36.000Z,27.1
2018-02-27T20:56:21.000Z,27.2
2018-02-27T20:57:36.000Z,27.1